sensor_id;sensor_type;location;lat;lon;timestamp;temperature;humidity
47310;DHT22;33046;52.270;6.832;2023-09-19T00:00:35;19.60;97.70
47310;DHT22;33046;52.270;6.832;2023-09-19T00:02:41;19.60;98.10
47310;DHT22;33046;52.270;6.832;2023-09-19T00:04:48;19.60;98.10
47310;DHT22;33046;52.270;6.832;2023-09-19T00:06:55;19.60;98.00
47310;DHT22;33046;52.270;6.832;2023-09-19T00:09:02;19.70;98.30
47310;DHT22;33046;52.270;6.832;2023-09-19T00:11:09;19.70;98.20
47310;DHT22;33046;52.270;6.832;2023-09-19T00:13:16;19.60;98.10
47310;DHT22;33046;52.270;6.832;2023-09-19T00:15:23;19.60;98.20
47310;DHT22;33046;52.270;6.832;2023-09-19T00:17:31;19.60;98.60
47310;DHT22;33046;52.270;6.832;2023-09-19T00:19:38;19.60;98.30
47310;DHT22;33046;52.270;6.832;2023-09-19T00:21:45;19.60;98.60
47310;DHT22;33046;52.270;6.832;2023-09-19T00:23:51;19.60;98.50
47310;DHT22;33046;52.270;6.832;2023-09-19T00:25:58;19.60;98.60
47310;DHT22;33046;52.270;6.832;2023-09-19T00:28:06;19.60;98.70
47310;DHT22;33046;52.270;6.832;2023-09-19T00:30:13;19.50;98.20
47310;DHT22;33046;52.270;6.832;2023-09-19T00:32:20;19.60;98.60
47310;DHT22;33046;52.270;6.832;2023-09-19T00:34:28;19.50;98.70
47310;DHT22;33046;52.270;6.832;2023-09-19T00:36:35;19.50;98.90
47310;DHT22;33046;52.270;6.832;2023-09-19T00:38:41;19.50;98.40
47310;DHT22;33046;52.270;6.832;2023-09-19T00:40:49;19.50;98.60
47310;DHT22;33046;52.270;6.832;2023-09-19T00:42:58;19.50;98.20
47310;DHT22;33046;52.270;6.832;2023-09-19T00:45:06;19.50;99.00
47310;DHT22;33046;52.270;6.832;2023-09-19T00:47:13;19.50;98.50
47310;DHT22;33046;52.270;6.832;2023-09-19T00:49:20;19.50;98.10
47310;DHT22;33046;52.270;6.832;2023-09-19T00:51:29;19.40;98.60
47310;DHT22;33046;52.270;6.832;2023-09-19T00:53:36;19.40;97.90
47310;DHT22;33046;52.270;6.832;2023-09-19T00:55:43;19.40;98.10
47310;DHT22;33046;52.270;6.832;2023-09-19T00:57:51;19.40;97.70
47310;DHT22;33046;52.270;6.832;2023-09-19T00:59:58;19.40;97.20
47310;DHT22;33046;52.270;6.832;2023-09-19T01:02:06;19.40;97.60
47310;DHT22;33046;52.270;6.832;2023-09-19T01:04:13;19.40;97.90
47310;DHT22;33046;52.270;6.832;2023-09-19T01:06:20;19.30;97.40
47310;DHT22;33046;52.270;6.832;2023-09-19T01:08:29;19.30;96.80
47310;DHT22;33046;52.270;6.832;2023-09-19T01:10:36;19.30;97.20
47310;DHT22;33046;52.270;6.832;2023-09-19T01:12:51;19.30;96.80
47310;DHT22;33046;52.270;6.832;2023-09-19T01:15:04;19.30;97.70
47310;DHT22;33046;52.270;6.832;2023-09-19T01:17:17;19.30;97.60
47310;DHT22;33046;52.270;6.832;2023-09-19T01:19:49;19.30;97.80
47310;DHT22;33046;52.270;6.832;2023-09-19T01:22:07;19.20;97.60
47310;DHT22;33046;52.270;6.832;2023-09-19T01:24:40;19.30;97.30
47310;DHT22;33046;52.270;6.832;2023-09-19T01:27:17;19.20;97.00
47310;DHT22;33046;52.270;6.832;2023-09-19T01:29:33;19.20;97.40
47310;DHT22;33046;52.270;6.832;2023-09-19T01:31:45;19.30;97.20
47310;DHT22;33046;52.270;6.832;2023-09-19T01:33:59;19.20;97.00
47310;DHT22;33046;52.270;6.832;2023-09-19T01:36:06;19.20;96.90
47310;DHT22;33046;52.270;6.832;2023-09-19T01:38:13;19.20;96.80
47310;DHT22;33046;52.270;6.832;2023-09-19T01:40:21;19.20;96.80
47310;DHT22;33046;52.270;6.832;2023-09-19T01:42:35;19.20;97.10
47310;DHT22;33046;52.270;6.832;2023-09-19T01:44:49;19.20;97.60
47310;DHT22;33046;52.270;6.832;2023-09-19T01:47:03;19.10;97.10
47310;DHT22;33046;52.270;6.832;2023-09-19T01:49:22;19.10;97.80
47310;DHT22;33046;52.270;6.832;2023-09-19T01:51:34;19.10;97.70
47310;DHT22;33046;52.270;6.832;2023-09-19T01:53:50;19.10;97.60
47310;DHT22;33046;52.270;6.832;2023-09-19T01:55:58;19.10;97.80
47310;DHT22;33046;52.270;6.832;2023-09-19T01:58:08;19.10;98.10
47310;DHT22;33046;52.270;6.832;2023-09-19T02:00:22;19.10;98.00
47310;DHT22;33046;52.270;6.832;2023-09-19T02:02:30;19.10;98.40
47310;DHT22;33046;52.270;6.832;2023-09-19T02:04:38;19.10;98.50
47310;DHT22;33046;52.270;6.832;2023-09-19T02:06:44;19.10;98.50
47310;DHT22;33046;52.270;6.832;2023-09-19T02:08:51;19.10;98.50
47310;DHT22;33046;52.270;6.832;2023-09-19T02:10:59;19.00;98.40
47310;DHT22;33046;52.270;6.832;2023-09-19T02:13:06;19.00;98.50
47310;DHT22;33046;52.270;6.832;2023-09-19T02:15:13;19.10;98.30
47310;DHT22;33046;52.270;6.832;2023-09-19T02:17:20;19.00;98.10
47310;DHT22;33046;52.270;6.832;2023-09-19T02:19:28;19.00;98.70
47310;DHT22;33046;52.270;6.832;2023-09-19T02:21:35;19.00;98.30
47310;DHT22;33046;52.270;6.832;2023-09-19T02:23:42;19.00;98.40
47310;DHT22;33046;52.270;6.832;2023-09-19T02:25:52;18.90;98.40
47310;DHT22;33046;52.270;6.832;2023-09-19T02:28:00;18.90;98.70
47310;DHT22;33046;52.270;6.832;2023-09-19T02:30:08;18.90;98.50
47310;DHT22;33046;52.270;6.832;2023-09-19T02:32:15;18.90;98.80
47310;DHT22;33046;52.270;6.832;2023-09-19T02:34:22;18.90;98.60
47310;DHT22;33046;52.270;6.832;2023-09-19T02:36:31;18.90;98.60
47310;DHT22;33046;52.270;6.832;2023-09-19T02:38:38;18.90;98.40
47310;DHT22;33046;52.270;6.832;2023-09-19T02:40:45;18.90;98.60
47310;DHT22;33046;52.270;6.832;2023-09-19T02:42:53;18.90;98.80
47310;DHT22;33046;52.270;6.832;2023-09-19T02:45:02;18.90;98.60
47310;DHT22;33046;52.270;6.832;2023-09-19T02:47:09;18.80;98.60
47310;DHT22;33046;52.270;6.832;2023-09-19T02:49:16;18.80;98.40
47310;DHT22;33046;52.270;6.832;2023-09-19T02:51:23;18.80;98.80
47310;DHT22;33046;52.270;6.832;2023-09-19T02:53:31;18.80;98.50
47310;DHT22;33046;52.270;6.832;2023-09-19T02:55:38;18.80;98.50
47310;DHT22;33046;52.270;6.832;2023-09-19T02:57:46;18.80;98.70
47310;DHT22;33046;52.270;6.832;2023-09-19T02:59:53;18.80;98.70
47310;DHT22;33046;52.270;6.832;2023-09-19T03:02:00;18.70;98.50
47310;DHT22;33046;52.270;6.832;2023-09-19T03:04:07;18.70;98.60
47310;DHT22;33046;52.270;6.832;2023-09-19T03:06:15;18.70;98.80
47310;DHT22;33046;52.270;6.832;2023-09-19T03:08:22;18.70;98.70
47310;DHT22;33046;52.270;6.832;2023-09-19T03:10:30;18.70;98.80
47310;DHT22;33046;52.270;6.832;2023-09-19T03:12:38;18.70;98.70
47310;DHT22;33046;52.270;6.832;2023-09-19T03:14:44;18.70;98.70
47310;DHT22;33046;52.270;6.832;2023-09-19T03:16:51;18.70;98.60
47310;DHT22;33046;52.270;6.832;2023-09-19T03:18:58;18.60;98.80
47310;DHT22;33046;52.270;6.832;2023-09-19T03:21:05;18.60;98.50
47310;DHT22;33046;52.270;6.832;2023-09-19T03:23:12;18.60;98.60
47310;DHT22;33046;52.270;6.832;2023-09-19T03:25:19;18.60;98.60
47310;DHT22;33046;52.270;6.832;2023-09-19T03:27:30;18.60;98.90
47310;DHT22;33046;52.270;6.832;2023-09-19T03:29:37;18.60;98.60
47310;DHT22;33046;52.270;6.832;2023-09-19T03:31:44;18.60;98.70
47310;DHT22;33046;52.270;6.832;2023-09-19T03:33:51;18.50;98.90
47310;DHT22;33046;52.270;6.832;2023-09-19T03:35:59;18.50;98.80
47310;DHT22;33046;52.270;6.832;2023-09-19T03:38:06;18.60;98.80
47310;DHT22;33046;52.270;6.832;2023-09-19T03:40:13;18.50;98.70
47310;DHT22;33046;52.270;6.832;2023-09-19T03:42:20;18.50;98.70
47310;DHT22;33046;52.270;6.832;2023-09-19T03:44:28;18.50;98.50
47310;DHT22;33046;52.270;6.832;2023-09-19T03:46:35;18.50;98.50
47310;DHT22;33046;52.270;6.832;2023-09-19T03:48:42;18.50;98.30
47310;DHT22;33046;52.270;6.832;2023-09-19T03:50:49;18.40;98.50
47310;DHT22;33046;52.270;6.832;2023-09-19T03:52:57;18.40;98.60
47310;DHT22;33046;52.270;6.832;2023-09-19T03:55:05;18.40;98.30
47310;DHT22;33046;52.270;6.832;2023-09-19T03:57:11;18.40;98.20
47310;DHT22;33046;52.270;6.832;2023-09-19T03:59:18;18.40;98.10
47310;DHT22;33046;52.270;6.832;2023-09-19T04:01:26;18.40;98.10
47310;DHT22;33046;52.270;6.832;2023-09-19T04:03:33;18.40;98.00
47310;DHT22;33046;52.270;6.832;2023-09-19T04:05:40;18.40;98.10
47310;DHT22;33046;52.270;6.832;2023-09-19T04:07:47;18.40;98.00
47310;DHT22;33046;52.270;6.832;2023-09-19T04:09:54;18.40;98.00
47310;DHT22;33046;52.270;6.832;2023-09-19T04:12:01;18.40;98.50
47310;DHT22;33046;52.270;6.832;2023-09-19T04:14:08;18.30;98.00
47310;DHT22;33046;52.270;6.832;2023-09-19T04:16:14;18.30;98.40
47310;DHT22;33046;52.270;6.832;2023-09-19T04:18:23;18.30;97.80
47310;DHT22;33046;52.270;6.832;2023-09-19T04:20:30;18.30;98.00
47310;DHT22;33046;52.270;6.832;2023-09-19T04:22:37;18.30;97.90
47310;DHT22;33046;52.270;6.832;2023-09-19T04:24:43;18.30;97.80
47310;DHT22;33046;52.270;6.832;2023-09-19T04:26:50;18.30;97.80
47310;DHT22;33046;52.270;6.832;2023-09-19T04:28:57;18.20;97.80
47310;DHT22;33046;52.270;6.832;2023-09-19T04:31:04;18.20;97.60
47310;DHT22;33046;52.270;6.832;2023-09-19T04:33:11;18.20;97.60
47310;DHT22;33046;52.270;6.832;2023-09-19T04:35:19;18.20;97.70
47310;DHT22;33046;52.270;6.832;2023-09-19T04:37:26;18.20;97.70
47310;DHT22;33046;52.270;6.832;2023-09-19T04:39:32;18.10;97.50
47310;DHT22;33046;52.270;6.832;2023-09-19T04:41:39;18.10;97.80
47310;DHT22;33046;52.270;6.832;2023-09-19T04:43:46;18.10;97.60
47310;DHT22;33046;52.270;6.832;2023-09-19T04:45:53;18.10;97.70
47310;DHT22;33046;52.270;6.832;2023-09-19T04:48:00;18.00;97.40
47310;DHT22;33046;52.270;6.832;2023-09-19T04:50:08;18.00;97.30
47310;DHT22;33046;52.270;6.832;2023-09-19T04:52:17;18.00;97.30
47310;DHT22;33046;52.270;6.832;2023-09-19T04:54:24;18.00;97.20
47310;DHT22;33046;52.270;6.832;2023-09-19T04:56:31;18.00;97.40
47310;DHT22;33046;52.270;6.832;2023-09-19T04:58:37;17.90;97.00
47310;DHT22;33046;52.270;6.832;2023-09-19T05:00:44;17.90;96.90
47310;DHT22;33046;52.270;6.832;2023-09-19T05:02:51;18.00;97.00
47310;DHT22;33046;52.270;6.832;2023-09-19T05:04:58;17.90;97.00
47310;DHT22;33046;52.270;6.832;2023-09-19T05:07:05;17.90;97.00
47310;DHT22;33046;52.270;6.832;2023-09-19T05:09:13;17.90;97.00
47310;DHT22;33046;52.270;6.832;2023-09-19T05:11:21;17.90;96.30
47310;DHT22;33046;52.270;6.832;2023-09-19T05:13:27;17.80;97.10
47310;DHT22;33046;52.270;6.832;2023-09-19T05:15:34;17.90;96.90
47310;DHT22;33046;52.270;6.832;2023-09-19T05:17:41;17.90;96.80
47310;DHT22;33046;52.270;6.832;2023-09-19T05:19:48;17.90;96.50
47310;DHT22;33046;52.270;6.832;2023-09-19T05:21:55;17.80;96.60
47310;DHT22;33046;52.270;6.832;2023-09-19T05:24:02;17.90;96.60
47310;DHT22;33046;52.270;6.832;2023-09-19T05:26:10;17.90;96.70
47310;DHT22;33046;52.270;6.832;2023-09-19T05:28:17;17.80;96.50
47310;DHT22;33046;52.270;6.832;2023-09-19T05:30:24;17.80;96.70
47310;DHT22;33046;52.270;6.832;2023-09-19T05:32:31;17.80;96.50
47310;DHT22;33046;52.270;6.832;2023-09-19T05:34:38;17.90;96.00
47310;DHT22;33046;52.270;6.832;2023-09-19T05:36:45;17.80;95.70
47310;DHT22;33046;52.270;6.832;2023-09-19T05:38:52;17.80;96.20
47310;DHT22;33046;52.270;6.832;2023-09-19T05:40:59;17.80;95.80
47310;DHT22;33046;52.270;6.832;2023-09-19T05:43:07;17.90;96.20
47310;DHT22;33046;52.270;6.832;2023-09-19T05:45:14;17.80;96.40
47310;DHT22;33046;52.270;6.832;2023-09-19T05:47:21;17.90;96.70
47310;DHT22;33046;52.270;6.832;2023-09-19T05:49:28;17.90;95.60
47310;DHT22;33046;52.270;6.832;2023-09-19T05:51:35;17.80;95.50
47310;DHT22;33046;52.270;6.832;2023-09-19T05:53:41;17.80;95.70
47310;DHT22;33046;52.270;6.832;2023-09-19T05:55:48;17.80;95.90
47310;DHT22;33046;52.270;6.832;2023-09-19T05:57:55;17.80;95.80
47310;DHT22;33046;52.270;6.832;2023-09-19T06:00:04;17.90;95.50
47310;DHT22;33046;52.270;6.832;2023-09-19T06:02:17;17.90;95.50
47310;DHT22;33046;52.270;6.832;2023-09-19T06:04:24;17.90;95.00
47310;DHT22;33046;52.270;6.832;2023-09-19T06:06:31;18.00;95.90
47310;DHT22;33046;52.270;6.832;2023-09-19T06:08:38;17.90;95.00
47310;DHT22;33046;52.270;6.832;2023-09-19T06:10:46;18.00;95.50
47310;DHT22;33046;52.270;6.832;2023-09-19T06:12:52;18.00;95.10
47310;DHT22;33046;52.270;6.832;2023-09-19T06:14:59;18.00;95.10
47310;DHT22;33046;52.270;6.832;2023-09-19T06:17:07;18.10;95.30
47310;DHT22;33046;52.270;6.832;2023-09-19T06:19:14;18.10;95.30
47310;DHT22;33046;52.270;6.832;2023-09-19T06:21:21;18.10;95.20
47310;DHT22;33046;52.270;6.832;2023-09-19T06:23:28;18.10;95.30
47310;DHT22;33046;52.270;6.832;2023-09-19T06:25:35;18.10;95.10
47310;DHT22;33046;52.270;6.832;2023-09-19T06:27:42;18.10;95.70
47310;DHT22;33046;52.270;6.832;2023-09-19T06:29:48;18.10;95.50
47310;DHT22;33046;52.270;6.832;2023-09-19T06:31:55;18.10;95.50
47310;DHT22;33046;52.270;6.832;2023-09-19T06:34:04;18.10;95.20
47310;DHT22;33046;52.270;6.832;2023-09-19T06:36:10;18.10;95.60
47310;DHT22;33046;52.270;6.832;2023-09-19T06:38:17;18.10;95.40
47310;DHT22;33046;52.270;6.832;2023-09-19T06:40:24;18.10;95.50
47310;DHT22;33046;52.270;6.832;2023-09-19T06:42:31;18.00;95.20
47310;DHT22;33046;52.270;6.832;2023-09-19T06:44:38;18.00;95.50
47310;DHT22;33046;52.270;6.832;2023-09-19T06:46:45;18.10;95.60
47310;DHT22;33046;52.270;6.832;2023-09-19T06:48:52;18.10;95.60
47310;DHT22;33046;52.270;6.832;2023-09-19T06:51:00;18.10;95.70
47310;DHT22;33046;52.270;6.832;2023-09-19T06:53:07;18.10;95.10
47310;DHT22;33046;52.270;6.832;2023-09-19T06:55:14;18.10;95.30
47310;DHT22;33046;52.270;6.832;2023-09-19T06:57:21;18.10;95.60
47310;DHT22;33046;52.270;6.832;2023-09-19T06:59:28;18.10;96.10
47310;DHT22;33046;52.270;6.832;2023-09-19T07:01:35;18.10;95.70
47310;DHT22;33046;52.270;6.832;2023-09-19T07:03:42;18.10;95.50
47310;DHT22;33046;52.270;6.832;2023-09-19T07:05:48;18.20;95.70
47310;DHT22;33046;52.270;6.832;2023-09-19T07:07:57;18.20;95.70
47310;DHT22;33046;52.270;6.832;2023-09-19T07:10:04;18.20;95.80
47310;DHT22;33046;52.270;6.832;2023-09-19T07:12:11;18.30;95.90
47310;DHT22;33046;52.270;6.832;2023-09-19T07:14:18;18.30;95.80
47310;DHT22;33046;52.270;6.832;2023-09-19T07:16:25;18.30;95.70
47310;DHT22;33046;52.270;6.832;2023-09-19T07:18:32;18.40;95.80
47310;DHT22;33046;52.270;6.832;2023-09-19T07:20:39;18.40;95.90
47310;DHT22;33046;52.270;6.832;2023-09-19T07:22:45;18.40;95.90
47310;DHT22;33046;52.270;6.832;2023-09-19T07:24:54;18.50;95.70
47310;DHT22;33046;52.270;6.832;2023-09-19T07:27:01;18.40;95.80
47310;DHT22;33046;52.270;6.832;2023-09-19T07:29:07;18.50;95.70
47310;DHT22;33046;52.270;6.832;2023-09-19T07:31:14;18.60;96.10
47310;DHT22;33046;52.270;6.832;2023-09-19T07:33:21;18.60;95.60
47310;DHT22;33046;52.270;6.832;2023-09-19T07:35:28;18.60;95.60
47310;DHT22;33046;52.270;6.832;2023-09-19T07:37:35;18.60;95.60
47310;DHT22;33046;52.270;6.832;2023-09-19T07:39:42;18.60;95.20
47310;DHT22;33046;52.270;6.832;2023-09-19T07:41:50;18.70;95.70
47310;DHT22;33046;52.270;6.832;2023-09-19T07:43:57;18.70;95.70
47310;DHT22;33046;52.270;6.832;2023-09-19T07:46:04;18.80;95.60
47310;DHT22;33046;52.270;6.832;2023-09-19T07:48:11;18.70;95.20
47310;DHT22;33046;52.270;6.832;2023-09-19T07:50:19;18.80;95.60
47310;DHT22;33046;52.270;6.832;2023-09-19T07:52:26;18.80;95.20
47310;DHT22;33046;52.270;6.832;2023-09-19T07:54:33;18.90;95.70
47310;DHT22;33046;52.270;6.832;2023-09-19T07:56:39;18.90;95.50
47310;DHT22;33046;52.270;6.832;2023-09-19T07:58:48;18.90;95.80
47310;DHT22;33046;52.270;6.832;2023-09-19T08:00:55;18.90;95.50
47310;DHT22;33046;52.270;6.832;2023-09-19T08:03:02;19.00;95.60
47310;DHT22;33046;52.270;6.832;2023-09-19T08:05:11;19.10;95.90
47310;DHT22;33046;52.270;6.832;2023-09-19T08:07:18;19.10;95.80
47310;DHT22;33046;52.270;6.832;2023-09-19T08:09:25;19.20;95.60
47310;DHT22;33046;52.270;6.832;2023-09-19T08:11:32;19.20;95.50
47310;DHT22;33046;52.270;6.832;2023-09-19T08:13:39;19.30;95.40
47310;DHT22;33046;52.270;6.832;2023-09-19T08:15:47;19.30;95.60
47310;DHT22;33046;52.270;6.832;2023-09-19T08:17:54;19.30;95.50
47310;DHT22;33046;52.270;6.832;2023-09-19T08:20:01;19.40;95.50
47310;DHT22;33046;52.270;6.832;2023-09-19T08:22:08;19.40;95.10
47310;DHT22;33046;52.270;6.832;2023-09-19T08:24:15;19.40;95.40
47310;DHT22;33046;52.270;6.832;2023-09-19T08:26:22;19.50;95.40
47310;DHT22;33046;52.270;6.832;2023-09-19T08:28:29;19.50;95.30
47310;DHT22;33046;52.270;6.832;2023-09-19T08:30:36;19.50;95.20
47310;DHT22;33046;52.270;6.832;2023-09-19T08:32:44;19.60;95.00
47310;DHT22;33046;52.270;6.832;2023-09-19T08:34:51;19.60;95.30
47310;DHT22;33046;52.270;6.832;2023-09-19T08:36:58;19.60;94.50
47310;DHT22;33046;52.270;6.832;2023-09-19T08:39:05;19.60;94.90
47310;DHT22;33046;52.270;6.832;2023-09-19T08:41:11;19.60;94.40
47310;DHT22;33046;52.270;6.832;2023-09-19T08:43:21;19.70;94.80
47310;DHT22;33046;52.270;6.832;2023-09-19T08:45:28;19.70;94.50
47310;DHT22;33046;52.270;6.832;2023-09-19T08:47:41;19.70;94.50
47310;DHT22;33046;52.270;6.832;2023-09-19T08:49:59;19.80;94.60
47310;DHT22;33046;52.270;6.832;2023-09-19T08:52:19;19.70;94.30
47310;DHT22;33046;52.270;6.832;2023-09-19T08:54:32;19.70;94.40
47310;DHT22;33046;52.270;6.832;2023-09-19T08:56:41;19.80;94.70
47310;DHT22;33046;52.270;6.832;2023-09-19T08:58:53;19.80;94.70
47310;DHT22;33046;52.270;6.832;2023-09-19T09:01:01;19.80;94.50
47310;DHT22;33046;52.270;6.832;2023-09-19T09:03:09;19.80;94.10
47310;DHT22;33046;52.270;6.832;2023-09-19T09:05:19;19.80;94.10
47310;DHT22;33046;52.270;6.832;2023-09-19T09:07:26;19.80;94.30
47310;DHT22;33046;52.270;6.832;2023-09-19T09:09:34;19.80;94.30
47310;DHT22;33046;52.270;6.832;2023-09-19T09:11:41;19.90;94.20
47310;DHT22;33046;52.270;6.832;2023-09-19T09:13:48;19.90;94.40
47310;DHT22;33046;52.270;6.832;2023-09-19T09:15:55;20.00;94.20
47310;DHT22;33046;52.270;6.832;2023-09-19T09:18:03;19.90;94.00
47310;DHT22;33046;52.270;6.832;2023-09-19T09:20:11;20.00;93.80
47310;DHT22;33046;52.270;6.832;2023-09-19T09:22:19;20.00;94.00
47310;DHT22;33046;52.270;6.832;2023-09-19T09:24:27;20.10;94.20
47310;DHT22;33046;52.270;6.832;2023-09-19T09:26:43;20.00;94.10
47310;DHT22;33046;52.270;6.832;2023-09-19T09:28:50;20.10;94.00
47310;DHT22;33046;52.270;6.832;2023-09-19T09:30:57;20.10;94.20
47310;DHT22;33046;52.270;6.832;2023-09-19T09:33:11;20.20;94.30
47310;DHT22;33046;52.270;6.832;2023-09-19T09:35:18;20.20;93.90
47310;DHT22;33046;52.270;6.832;2023-09-19T09:37:28;20.20;94.00
47310;DHT22;33046;52.270;6.832;2023-09-19T09:39:35;20.20;93.80
47310;DHT22;33046;52.270;6.832;2023-09-19T09:41:42;20.20;94.30
47310;DHT22;33046;52.270;6.832;2023-09-19T09:43:49;20.30;94.50
47310;DHT22;33046;52.270;6.832;2023-09-19T09:46:12;20.30;94.00
47310;DHT22;33046;52.270;6.832;2023-09-19T09:48:24;20.30;93.70
47310;DHT22;33046;52.270;6.832;2023-09-19T09:50:33;20.40;93.50
47310;DHT22;33046;52.270;6.832;2023-09-19T09:52:47;20.40;93.90
47310;DHT22;33046;52.270;6.832;2023-09-19T09:55:00;20.50;93.90
47310;DHT22;33046;52.270;6.832;2023-09-19T09:57:09;20.50;93.80
47310;DHT22;33046;52.270;6.832;2023-09-19T09:59:16;20.50;93.80
47310;DHT22;33046;52.270;6.832;2023-09-19T10:01:23;20.50;93.50
47310;DHT22;33046;52.270;6.832;2023-09-19T10:03:33;20.50;93.40
47310;DHT22;33046;52.270;6.832;2023-09-19T10:05:44;20.60;93.50
47310;DHT22;33046;52.270;6.832;2023-09-19T10:07:52;20.60;93.90
47310;DHT22;33046;52.270;6.832;2023-09-19T10:10:01;20.70;93.20
47310;DHT22;33046;52.270;6.832;2023-09-19T10:12:09;20.70;93.70
47310;DHT22;33046;52.270;6.832;2023-09-19T10:14:17;20.70;93.80
47310;DHT22;33046;52.270;6.832;2023-09-19T10:16:29;20.80;93.80
47310;DHT22;33046;52.270;6.832;2023-09-19T10:18:38;20.80;93.00
47310;DHT22;33046;52.270;6.832;2023-09-19T10:20:47;20.80;93.40
47310;DHT22;33046;52.270;6.832;2023-09-19T10:22:56;20.90;93.50
47310;DHT22;33046;52.270;6.832;2023-09-19T10:25:04;20.90;93.00
47310;DHT22;33046;52.270;6.832;2023-09-19T10:27:12;21.00;92.70
47310;DHT22;33046;52.270;6.832;2023-09-19T10:29:20;21.00;92.70
47310;DHT22;33046;52.270;6.832;2023-09-19T10:31:28;21.10;92.70
47310;DHT22;33046;52.270;6.832;2023-09-19T10:33:36;21.10;92.30
47310;DHT22;33046;52.270;6.832;2023-09-19T10:35:44;21.20;92.20
47310;DHT22;33046;52.270;6.832;2023-09-19T10:37:52;21.20;92.90
47310;DHT22;33046;52.270;6.832;2023-09-19T10:40:02;21.30;92.30
47310;DHT22;33046;52.270;6.832;2023-09-19T10:42:11;21.40;91.30
47310;DHT22;33046;52.270;6.832;2023-09-19T10:44:23;21.50;91.00
47310;DHT22;33046;52.270;6.832;2023-09-19T10:46:31;21.50;91.50
47310;DHT22;33046;52.270;6.832;2023-09-19T10:48:39;21.60;91.10
47310;DHT22;33046;52.270;6.832;2023-09-19T10:50:50;21.60;90.20
47310;DHT22;33046;52.270;6.832;2023-09-19T10:53:01;21.60;90.00
47310;DHT22;33046;52.270;6.832;2023-09-19T10:55:16;21.50;90.00
47310;DHT22;33046;52.270;6.832;2023-09-19T10:57:25;21.50;89.00
47310;DHT22;33046;52.270;6.832;2023-09-19T10:59:32;21.50;90.00
47310;DHT22;33046;52.270;6.832;2023-09-19T11:01:46;21.50;90.60
47310;DHT22;33046;52.270;6.832;2023-09-19T11:06:39;21.50;90.80
47310;DHT22;33046;52.270;6.832;2023-09-19T11:08:56;21.40;90.80
47310;DHT22;33046;52.270;6.832;2023-09-19T11:11:40;21.50;91.00
47310;DHT22;33046;52.270;6.832;2023-09-19T11:14:14;21.40;91.00
47310;DHT22;33046;52.270;6.832;2023-09-19T11:16:21;21.30;90.70
47310;DHT22;33046;52.270;6.832;2023-09-19T11:18:53;21.40;91.20
47310;DHT22;33046;52.270;6.832;2023-09-19T11:23:41;21.50;91.00
47310;DHT22;33046;52.270;6.832;2023-09-19T11:25:50;21.50;90.90
47310;DHT22;33046;52.270;6.832;2023-09-19T11:28:32;21.50;91.00
47310;DHT22;33046;52.270;6.832;2023-09-19T11:30:41;21.50;90.70
47310;DHT22;33046;52.270;6.832;2023-09-19T11:33:16;21.40;91.10
47310;DHT22;33046;52.270;6.832;2023-09-19T11:35:59;21.50;90.90
47310;DHT22;33046;52.270;6.832;2023-09-19T11:38:06;21.50;91.10
47310;DHT22;33046;52.270;6.832;2023-09-19T11:40:12;21.50;90.90
47310;DHT22;33046;52.270;6.832;2023-09-19T11:42:41;21.50;90.80
47310;DHT22;33046;52.270;6.832;2023-09-19T11:44:47;21.50;91.20
47310;DHT22;33046;52.270;6.832;2023-09-19T11:46:56;21.60;90.60
47310;DHT22;33046;52.270;6.832;2023-09-19T11:49:05;21.60;90.80
47310;DHT22;33046;52.270;6.832;2023-09-19T11:51:15;21.70;91.00
47310;DHT22;33046;52.270;6.832;2023-09-19T11:53:23;21.70;90.90
47310;DHT22;33046;52.270;6.832;2023-09-19T11:55:31;21.70;90.80
47310;DHT22;33046;52.270;6.832;2023-09-19T11:57:38;21.70;90.70
47310;DHT22;33046;52.270;6.832;2023-09-19T11:59:45;21.70;90.40
47310;DHT22;33046;52.270;6.832;2023-09-19T12:01:54;21.70;90.30
47310;DHT22;33046;52.270;6.832;2023-09-19T12:04:03;21.80;90.70
47310;DHT22;33046;52.270;6.832;2023-09-19T12:06:11;21.80;90.70
47310;DHT22;33046;52.270;6.832;2023-09-19T12:08:18;21.90;90.90
47310;DHT22;33046;52.270;6.832;2023-09-19T12:10:25;21.90;90.70
47310;DHT22;33046;52.270;6.832;2023-09-19T12:12:32;21.90;90.20
47310;DHT22;33046;52.270;6.832;2023-09-19T12:14:39;21.90;90.20
47310;DHT22;33046;52.270;6.832;2023-09-19T12:16:51;21.90;90.50
47310;DHT22;33046;52.270;6.832;2023-09-19T12:19:19;21.90;90.40
47310;DHT22;33046;52.270;6.832;2023-09-19T12:21:28;21.80;89.70
47310;DHT22;33046;52.270;6.832;2023-09-19T12:23:35;21.80;90.10
47310;DHT22;33046;52.270;6.832;2023-09-19T12:25:42;21.80;89.80
47310;DHT22;33046;52.270;6.832;2023-09-19T12:27:50;21.80;90.10
47310;DHT22;33046;52.270;6.832;2023-09-19T12:29:57;21.80;90.40
47310;DHT22;33046;52.270;6.832;2023-09-19T12:32:04;21.80;90.30
47310;DHT22;33046;52.270;6.832;2023-09-19T12:34:11;21.70;90.30
47310;DHT22;33046;52.270;6.832;2023-09-19T12:36:23;21.70;90.10
47310;DHT22;33046;52.270;6.832;2023-09-19T12:38:30;21.80;90.30
47310;DHT22;33046;52.270;6.832;2023-09-19T12:40:36;21.80;90.60
47310;DHT22;33046;52.270;6.832;2023-09-19T12:42:44;21.80;90.40
47310;DHT22;33046;52.270;6.832;2023-09-19T12:44:52;21.90;90.20
47310;DHT22;33046;52.270;6.832;2023-09-19T12:46:59;21.80;89.20
47310;DHT22;33046;52.270;6.832;2023-09-19T12:49:16;21.70;89.40
47310;DHT22;33046;52.270;6.832;2023-09-19T12:51:34;21.70;90.00
47310;DHT22;33046;52.270;6.832;2023-09-19T12:53:42;21.80;90.40
47310;DHT22;33046;52.270;6.832;2023-09-19T12:55:58;21.80;90.40
47310;DHT22;33046;52.270;6.832;2023-09-19T12:58:09;21.80;90.50
47310;DHT22;33046;52.270;6.832;2023-09-19T13:00:18;21.80;90.30
47310;DHT22;33046;52.270;6.832;2023-09-19T13:02:24;21.80;90.20
47310;DHT22;33046;52.270;6.832;2023-09-19T13:04:31;21.90;90.20
47310;DHT22;33046;52.270;6.832;2023-09-19T13:06:39;21.90;90.40
47310;DHT22;33046;52.270;6.832;2023-09-19T13:08:46;21.90;89.10
47310;DHT22;33046;52.270;6.832;2023-09-19T13:11:03;21.90;89.90
47310;DHT22;33046;52.270;6.832;2023-09-19T13:13:22;22.00;90.30
47310;DHT22;33046;52.270;6.832;2023-09-19T13:15:52;22.10;90.60
47310;DHT22;33046;52.270;6.832;2023-09-19T13:18:00;22.10;90.60
47310;DHT22;33046;52.270;6.832;2023-09-19T13:20:24;22.10;90.80
47310;DHT22;33046;52.270;6.832;2023-09-19T13:22:43;22.10;90.50
47310;DHT22;33046;52.270;6.832;2023-09-19T13:24:50;22.10;90.30
47310;DHT22;33046;52.270;6.832;2023-09-19T13:26:57;22.10;90.30
47310;DHT22;33046;52.270;6.832;2023-09-19T13:29:04;22.10;90.30
47310;DHT22;33046;52.270;6.832;2023-09-19T13:31:11;22.10;90.30
47310;DHT22;33046;52.270;6.832;2023-09-19T13:33:18;22.00;90.10
47310;DHT22;33046;52.270;6.832;2023-09-19T13:35:25;22.00;90.30
47310;DHT22;33046;52.270;6.832;2023-09-19T13:37:33;22.00;90.10
47310;DHT22;33046;52.270;6.832;2023-09-19T13:39:41;21.90;90.10